createdAt,value
2019-04-04T00:01:47.813Z,17.70
2019-04-04T00:04:15.831Z,16.40
2019-04-04T00:06:44.273Z,16.10
2019-04-04T00:09:12.749Z,16.30
2019-04-04T00:11:41.344Z,16.97
2019-04-04T00:14:12.721Z,17.10
2019-04-04T00:16:39.985Z,17.73
2019-04-04T00:19:08.483Z,16.67
2019-04-04T00:21:36.940Z,17.55
2019-04-04T00:24:07.142Z,17.10
2019-04-04T00:29:03.616Z,17.30
2019-04-04T00:31:32.102Z,15.98
2019-04-04T00:34:00.563Z,16.52
2019-04-04T00:36:29.058Z,18.37
2019-04-04T00:38:57.563Z,16.50
2019-04-04T00:41:26.018Z,16.97
2019-04-04T00:43:54.527Z,16.20
2019-04-04T00:46:22.990Z,16.75
2019-04-04T00:48:51.526Z,18.27
2019-04-04T00:51:20.091Z,16.48
2019-04-04T00:53:48.547Z,17.20
2019-04-04T00:56:18.127Z,17.75
2019-04-04T00:58:47.273Z,16.90
2019-04-04T01:01:16.615Z,17.30
2019-04-04T01:03:45.333Z,17.10
2019-04-04T01:06:13.786Z,16.57
2019-04-04T01:08:42.279Z,17.10
2019-04-04T01:11:10.784Z,18.60
2019-04-04T01:13:39.243Z,16.95
2019-04-04T01:16:07.742Z,16.02
2019-04-04T01:18:37.434Z,17.37
2019-04-04T01:21:06.048Z,17.85
2019-04-04T01:23:34.509Z,17.57
2019-04-04T01:26:03.395Z,16.97
2019-04-04T01:28:32.680Z,18.87
2019-04-04T01:31:01.138Z,17.15
2019-04-04T01:33:29.663Z,17.48
2019-04-04T01:35:58.122Z,17.75
2019-04-04T01:38:27.127Z,17.90
2019-04-04T01:40:56.796Z,18.40
2019-04-04T01:43:25.261Z,16.17
2019-04-04T01:45:53.757Z,17.17
2019-04-04T01:48:22.251Z,17.73
2019-04-04T01:50:53.399Z,18.30
2019-04-04T01:53:20.951Z,16.77
2019-04-04T01:55:49.403Z,17.70
2019-04-04T01:58:17.935Z,17.60
2019-04-04T02:00:46.601Z,18.25
2019-04-04T02:03:15.176Z,18.67
2019-04-04T02:05:43.619Z,18.07
2019-04-04T02:08:12.102Z,18.52
2019-04-04T02:10:40.567Z,17.55
2019-04-04T02:13:09.885Z,17.60
2019-04-04T02:15:39.029Z,18.45
2019-04-04T02:18:07.554Z,17.70
2019-04-04T02:20:38.723Z,18.82
2019-04-04T02:23:07.234Z,19.27
2019-04-04T02:25:35.695Z,18.17
2019-04-04T02:28:04.161Z,18.40
2019-04-04T02:30:32.659Z,19.07
2019-04-04T02:33:01.213Z,17.50
2019-04-04T02:35:29.667Z,19.07
2019-04-04T02:37:58.233Z,19.10
2019-04-04T02:40:26.696Z,18.60
2019-04-04T02:42:55.539Z,17.40
2019-04-04T02:45:24.146Z,18.95
2019-04-04T02:47:52.673Z,18.52
2019-04-04T02:50:21.276Z,19.73
2019-04-04T02:52:49.810Z,18.32
2019-04-04T02:55:18.341Z,19.23
2019-04-04T02:57:46.836Z,19.00
2019-04-04T03:00:16.183Z,18.20
2019-04-04T03:02:44.673Z,18.80
2019-04-04T03:05:13.312Z,17.87
2019-04-04T03:07:42.054Z,18.60
2019-04-04T03:10:15.196Z,16.57
2019-04-04T03:15:10.265Z,19.10
2019-04-04T03:17:38.869Z,19.80
2019-04-04T03:20:07.474Z,17.48
2019-04-04T03:22:35.978Z,18.20
2019-04-04T03:25:05.600Z,18.55
2019-04-04T03:27:34.131Z,19.02
2019-04-04T03:30:02.665Z,20.12
2019-04-04T03:32:31.222Z,19.92
2019-04-04T03:34:59.819Z,18.60
2019-04-04T03:37:28.349Z,20.55
2019-04-04T03:39:56.809Z,17.95
2019-04-04T03:42:25.371Z,19.42
2019-04-04T03:44:54.434Z,17.92
2019-04-04T03:47:23.201Z,18.73
2019-04-04T03:49:56.351Z,18.32
2019-04-04T03:52:21.865Z,20.32
2019-04-04T03:54:55.272Z,19.55
2019-04-04T03:57:20.584Z,20.92
2019-04-04T03:59:49.142Z,17.82
2019-04-04T04:02:18.624Z,20.30
2019-04-04T04:04:47.348Z,18.60
2019-04-04T04:07:15.897Z,20.15
2019-04-04T04:09:44.424Z,20.20
2019-04-04T04:12:12.961Z,19.27
2019-04-04T04:14:41.542Z,19.85
2019-04-04T04:17:11.726Z,20.27
2019-04-04T04:19:41.120Z,19.27
2019-04-04T04:22:12.765Z,20.20
2019-04-04T04:24:39.828Z,20.37
2019-04-04T04:27:08.296Z,20.90
2019-04-04T04:29:36.803Z,21.07
2019-04-04T04:32:05.342Z,20.45
2019-04-04T04:34:34.294Z,19.62
2019-04-04T04:37:02.974Z,19.85
2019-04-04T04:39:35.843Z,21.75
2019-04-04T04:42:01.689Z,20.27
2019-04-04T04:44:30.405Z,21.80
2019-04-04T04:46:58.861Z,19.60
2019-04-04T04:49:27.396Z,21.30
2019-04-04T04:51:55.970Z,21.35
2019-04-04T04:54:24.429Z,21.97
2019-04-04T04:56:52.968Z,22.87
2019-04-04T04:59:21.852Z,22.37
2019-04-04T05:01:51.172Z,21.17
2019-04-04T05:04:19.799Z,21.00
2019-04-04T05:06:48.366Z,21.07
2019-04-04T05:09:16.887Z,20.15
2019-04-04T05:11:45.354Z,22.02
2019-04-04T05:14:13.817Z,22.67
2019-04-04T05:16:42.370Z,21.93
2019-04-04T05:19:10.835Z,22.65
2019-04-04T05:21:39.430Z,22.20
2019-04-04T05:24:07.952Z,20.17
2019-04-04T05:26:38.463Z,20.00
2019-04-04T05:29:06.866Z,19.48
2019-04-04T05:31:35.448Z,20.95
2019-04-04T05:34:04.170Z,19.75
2019-04-04T05:36:36.048Z,19.87
2019-04-04T05:39:04.501Z,20.20
2019-04-04T05:41:33.016Z,19.77
2019-04-04T05:44:01.620Z,18.67
2019-04-04T05:46:30.096Z,21.23
2019-04-04T05:49:00.703Z,19.45
2019-04-04T05:51:28.872Z,19.65
2019-04-04T05:53:57.330Z,19.70
2019-04-04T05:56:25.791Z,19.35
2019-04-04T05:58:54.399Z,19.00
2019-04-04T06:01:23.290Z,20.43
2019-04-04T06:03:51.753Z,19.35
2019-04-04T06:06:20.321Z,19.48
2019-04-04T06:08:48.873Z,19.95
2019-04-04T06:11:20.976Z,18.75
2019-04-04T06:13:47.661Z,19.82
2019-04-04T06:16:16.377Z,18.77
2019-04-04T06:18:44.881Z,18.92
2019-04-04T06:21:13.407Z,20.10
2019-04-04T06:23:41.936Z,19.17
2019-04-04T06:26:10.398Z,20.32
2019-04-04T06:28:38.914Z,18.42
2019-04-04T06:31:07.447Z,18.40
2019-04-04T06:33:36.025Z,19.32
2019-04-04T06:36:04.584Z,18.92
2019-04-04T06:38:33.051Z,17.50
2019-04-04T06:41:01.603Z,18.32
2019-04-04T06:43:30.134Z,18.60
2019-04-04T06:45:58.656Z,18.05
2019-04-04T06:48:29.170Z,18.27
2019-04-04T06:50:57.354Z,18.12
2019-04-04T06:53:25.859Z,17.87
2019-04-04T06:55:54.327Z,17.67
2019-04-04T06:58:22.796Z,16.70
2019-04-04T07:00:51.405Z,17.00
2019-04-04T07:03:19.919Z,17.87
2019-04-04T07:05:48.374Z,18.50
2019-04-04T07:08:16.887Z,16.95
2019-04-04T07:10:57.145Z,16.40
2019-04-04T07:13:21.952Z,16.27
2019-04-04T07:15:48.413Z,16.93
2019-04-04T07:18:16.409Z,16.67
2019-04-04T07:20:48.022Z,16.45
2019-04-04T07:23:15.254Z,15.35
2019-04-04T07:25:43.716Z,15.78
2019-04-04T07:28:12.230Z,15.32
2019-04-04T07:30:40.687Z,15.58
2019-04-04T07:33:11.803Z,14.95
2019-04-04T07:35:39.389Z,14.20
2019-04-04T07:38:07.916Z,15.18
2019-04-04T07:40:37.334Z,14.00
2019-04-04T07:43:08.472Z,14.00
2019-04-04T07:45:36.248Z,13.22
2019-04-04T07:48:04.750Z,13.80
2019-04-04T07:50:33.251Z,14.13
2019-04-04T07:53:03.881Z,13.90
2019-04-04T07:55:31.945Z,14.07
2019-04-04T07:58:00.395Z,13.60
2019-04-04T08:00:28.909Z,13.88
2019-04-04T08:02:57.411Z,13.13
2019-04-04T08:05:25.866Z,13.32
2019-04-04T08:07:54.372Z,13.75
2019-04-04T08:10:22.836Z,13.95
2019-04-04T08:12:51.420Z,12.90
2019-04-04T08:15:19.955Z,12.75
2019-04-04T08:17:48.471Z,13.05
2019-04-04T08:20:17.019Z,12.80
2019-04-04T08:22:45.487Z,13.13
2019-04-04T08:25:13.989Z,13.13
2019-04-04T08:27:42.463Z,12.45
2019-04-04T08:30:11.338Z,11.97
2019-04-04T08:32:39.952Z,13.00
2019-04-04T08:35:08.651Z,12.30
2019-04-04T08:37:37.114Z,12.35
2019-04-04T08:40:07.063Z,11.55
2019-04-04T08:42:35.509Z,11.70
2019-04-04T08:45:07.876Z,10.78
2019-04-04T08:47:36.379Z,10.28
2019-04-04T08:50:06.175Z,11.35
2019-04-04T08:52:34.637Z,11.80
2019-04-04T08:55:03.191Z,10.93
2019-04-04T08:57:31.642Z,10.45
2019-04-04T09:00:00.129Z,11.33
2019-04-04T09:02:28.633Z,10.90
2019-04-04T09:04:57.099Z,11.15
2019-04-04T09:07:25.600Z,10.40
2019-04-04T09:09:54.209Z,10.88
2019-04-04T09:12:22.958Z,10.45
2019-04-04T09:14:51.474Z,10.90
2019-04-04T09:17:19.941Z,10.95
2019-04-04T09:19:48.447Z,10.70
2019-04-04T09:22:16.943Z,10.78
2019-04-04T09:24:45.940Z,10.55
2019-04-04T09:27:14.447Z,10.82
2019-04-04T09:29:42.984Z,10.85
2019-04-04T09:32:11.516Z,9.83
2019-04-04T09:34:39.980Z,9.68
2019-04-04T09:37:08.761Z,9.80
2019-04-04T09:39:37.608Z,10.20
2019-04-04T09:42:06.072Z,9.78
2019-04-04T09:44:34.585Z,10.05
2019-04-04T09:47:05.732Z,9.53
2019-04-04T09:49:33.219Z,10.35
2019-04-04T09:52:01.748Z,10.63
2019-04-04T09:54:30.208Z,9.75
2019-04-04T09:56:58.675Z,8.48
2019-04-04T09:59:27.172Z,9.28
2019-04-04T10:01:55.631Z,9.03
2019-04-04T10:04:24.131Z,9.38
2019-04-04T10:06:52.592Z,9.20
2019-04-04T10:09:21.145Z,9.75
2019-04-04T10:11:49.647Z,8.75
2019-04-04T10:14:18.116Z,8.70
2019-04-04T10:16:46.656Z,8.63
2019-04-04T10:19:15.151Z,8.48
2019-04-04T10:21:43.687Z,8.45
2019-04-04T10:24:12.144Z,8.90
2019-04-04T10:26:41.038Z,9.35
2019-04-04T10:29:09.581Z,9.13
2019-04-04T10:31:38.037Z,8.75
2019-04-04T10:34:06.524Z,8.60
2019-04-04T10:36:35.121Z,8.63
2019-04-04T10:39:05.475Z,8.20
2019-04-04T10:44:01.717Z,8.35
2019-04-04T10:46:30.260Z,8.03
2019-04-04T10:48:58.788Z,7.80
2019-04-04T10:51:27.237Z,8.13
2019-04-04T10:53:55.693Z,8.85
2019-04-04T10:56:24.256Z,8.28
2019-04-04T10:58:52.725Z,8.18
2019-04-04T11:01:21.201Z,8.10
2019-04-04T11:03:49.691Z,7.22
2019-04-04T11:06:18.174Z,7.40
2019-04-04T11:08:46.699Z,7.60
2019-04-04T11:11:15.145Z,8.33
2019-04-04T11:13:43.598Z,7.83
2019-04-04T11:16:12.120Z,7.47
2019-04-04T11:18:40.595Z,7.83
2019-04-04T11:21:09.065Z,7.47
2019-04-04T11:23:37.573Z,7.58
2019-04-04T11:26:06.031Z,7.47
2019-04-04T11:28:34.698Z,7.47
2019-04-04T11:31:03.575Z,6.80
2019-04-04T11:33:32.027Z,7.10
2019-04-04T11:36:00.878Z,7.40
2019-04-04T11:38:29.416Z,6.58
2019-04-04T11:40:57.880Z,7.03
2019-04-04T11:43:26.448Z,7.70
2019-04-04T11:45:54.900Z,7.15
2019-04-04T11:48:23.400Z,7.12
2019-04-04T11:50:51.896Z,6.83
2019-04-04T11:53:20.355Z,8.00
2019-04-04T11:55:48.855Z,6.97
2019-04-04T11:58:17.321Z,6.58
2019-04-04T12:00:53.663Z,7.20
2019-04-04T12:03:22.173Z,6.17
2019-04-04T12:05:50.632Z,6.42
2019-04-04T12:08:19.185Z,6.53
2019-04-04T12:10:47.712Z,6.05
2019-04-04T12:13:16.175Z,6.17
2019-04-04T12:15:51.997Z,6.53
2019-04-04T12:18:20.514Z,7.03
2019-04-04T12:20:49.143Z,6.30
2019-04-04T12:23:17.603Z,7.30
2019-04-04T12:25:46.129Z,6.47
2019-04-04T12:28:14.579Z,7.42
2019-04-04T12:30:43.042Z,6.72
2019-04-04T12:33:11.613Z,7.10
2019-04-04T12:35:40.084Z,6.95
2019-04-04T12:38:08.531Z,6.42
2019-04-04T12:40:37.024Z,7.17
2019-04-04T12:43:05.480Z,7.50
2019-04-04T12:45:34.038Z,7.12
2019-04-04T12:48:02.584Z,7.42
2019-04-04T12:50:31.109Z,8.33
2019-04-04T12:52:59.579Z,8.68
2019-04-04T12:55:28.149Z,7.90
2019-04-04T12:57:56.685Z,8.10
2019-04-04T13:00:25.209Z,7.75
2019-04-04T13:02:53.674Z,7.65
2019-04-04T13:05:22.205Z,8.60
2019-04-04T13:07:50.664Z,7.42
2019-04-04T13:10:32.009Z,7.78
2019-04-04T13:12:50.131Z,7.25
2019-04-04T13:15:18.789Z,7.47
2019-04-04T13:17:47.247Z,8.33
2019-04-04T13:20:17.166Z,7.67
2019-04-04T13:22:45.696Z,7.35
2019-04-04T13:25:14.222Z,7.10
2019-04-04T13:27:42.800Z,6.05
2019-04-04T13:30:12.009Z,6.40
2019-04-04T13:32:40.461Z,6.80
2019-04-04T13:35:09.692Z,6.20
2019-04-04T13:37:57.560Z,6.47
2019-04-04T13:40:26.050Z,6.92
2019-04-04T13:42:54.505Z,6.25
2019-04-04T13:45:25.148Z,6.22
2019-04-04T13:50:20.941Z,6.40
2019-04-04T13:52:49.400Z,6.28
2019-04-04T13:55:17.933Z,6.40
2019-04-04T13:57:47.589Z,6.45
2019-04-04T14:00:17.641Z,6.05
2019-04-04T14:02:46.126Z,6.22
2019-04-04T14:05:14.775Z,6.08
2019-04-04T14:07:44.119Z,5.78
2019-04-04T14:10:16.899Z,6.37
2019-04-04T14:12:44.487Z,6.03
2019-04-04T14:15:13.430Z,5.20
2019-04-04T14:17:43.810Z,5.87
2019-04-04T14:20:12.903Z,5.90
2019-04-04T14:22:41.423Z,5.58
2019-04-04T14:25:10.285Z,5.45
2019-04-04T14:27:38.747Z,5.12
2019-04-04T14:30:08.806Z,5.92
2019-04-04T14:32:56.687Z,5.50
2019-04-04T14:35:27.293Z,5.33
2019-04-04T14:37:55.764Z,4.97
2019-04-04T14:40:24.210Z,5.40
2019-04-04T14:42:52.717Z,6.15
2019-04-04T14:45:21.179Z,5.72
2019-04-04T14:47:49.643Z,5.40
2019-04-04T14:50:18.179Z,5.80
2019-04-04T14:52:46.714Z,5.45
2019-04-04T14:55:17.781Z,5.42
2019-04-04T14:57:45.468Z,6.05
2019-04-04T15:00:16.047Z,5.60
2019-04-04T15:02:44.579Z,4.70
2019-04-04T15:05:13.173Z,5.58
2019-04-04T15:07:41.692Z,5.33
2019-04-04T15:10:11.179Z,5.20
2019-04-04T15:12:39.646Z,5.75
2019-04-04T15:15:08.395Z,5.10
2019-04-04T15:17:36.909Z,6.05
2019-04-04T15:20:06.914Z,5.85
2019-04-04T15:22:35.439Z,4.85
2019-04-04T15:25:04.238Z,5.37
2019-04-04T15:27:32.699Z,4.90
2019-04-04T15:30:01.231Z,5.05
2019-04-04T15:32:29.718Z,5.83
2019-04-04T15:34:58.251Z,5.45
2019-04-04T15:37:26.722Z,5.50
2019-04-04T15:39:55.173Z,4.90
2019-04-04T15:42:23.756Z,4.75
2019-04-04T15:44:52.226Z,4.58
2019-04-04T15:47:20.677Z,5.17
2019-04-04T15:49:49.198Z,4.85
2019-04-04T15:52:17.805Z,4.95
2019-04-04T15:54:46.344Z,5.35
2019-04-04T15:57:14.799Z,5.22
2019-04-04T15:59:43.287Z,5.00
2019-04-04T16:02:11.788Z,4.80
2019-04-04T16:04:40.317Z,5.10
2019-04-04T16:07:09.721Z,5.75
2019-04-04T16:09:38.175Z,4.67
2019-04-04T16:12:06.704Z,4.72
2019-04-04T16:14:35.232Z,4.87
2019-04-04T16:17:03.737Z,5.45
2019-04-04T16:19:32.265Z,5.20
2019-04-04T16:22:00.803Z,6.83
2019-04-04T16:24:29.339Z,6.08
2019-04-04T16:26:57.830Z,5.78
2019-04-04T16:29:26.277Z,5.80
2019-04-04T16:31:54.810Z,5.60
2019-04-04T16:34:23.274Z,8.60
2019-04-04T16:36:51.812Z,10.50
2019-04-04T16:39:20.347Z,90.38
2019-04-04T16:42:01.262Z,197.25
2019-04-04T16:46:46.760Z,49.05
2019-04-04T16:49:15.215Z,15.58
2019-04-04T16:51:43.675Z,7.60
2019-04-04T16:54:12.214Z,7.37
2019-04-04T16:56:40.673Z,7.67
2019-04-04T16:59:09.122Z,5.80
2019-04-04T17:01:37.690Z,8.68
2019-04-04T17:04:06.259Z,8.33
2019-04-04T17:06:34.788Z,7.15
2019-04-04T17:09:03.657Z,6.12
2019-04-04T17:11:32.199Z,6.35
2019-04-04T17:14:01.755Z,6.12
2019-04-04T17:16:30.219Z,7.55
2019-04-04T17:18:58.756Z,7.75
2019-04-04T17:21:27.334Z,6.40
2019-04-04T17:23:55.863Z,6.58
2019-04-04T17:26:24.319Z,7.05
2019-04-04T17:28:53.884Z,5.97
2019-04-04T17:31:22.746Z,6.80
2019-04-04T17:33:51.595Z,5.95
2019-04-04T17:36:21.449Z,6.95
2019-04-04T17:38:50.128Z,6.08
2019-04-04T17:41:18.583Z,6.65
2019-04-04T17:43:47.393Z,6.35
2019-04-04T17:46:16.041Z,6.55
2019-04-04T17:48:45.034Z,6.35
2019-04-04T17:51:13.665Z,5.83
2019-04-04T17:53:42.411Z,7.22
2019-04-04T17:56:11.096Z,6.08
2019-04-04T17:58:39.671Z,6.30
2019-04-04T18:01:09.802Z,6.22
2019-04-04T18:03:38.285Z,6.50
2019-04-04T18:06:06.733Z,6.92
2019-04-04T18:08:35.369Z,7.10
2019-04-04T18:11:03.905Z,6.42
2019-04-04T18:13:32.395Z,6.30
2019-04-04T18:16:00.940Z,6.58
2019-04-04T18:18:29.457Z,6.45
2019-04-04T18:20:57.981Z,6.58
2019-04-04T18:23:26.511Z,7.22
2019-04-04T18:25:55.047Z,8.48
2019-04-04T18:28:23.785Z,8.23
2019-04-04T18:30:52.307Z,7.87
2019-04-04T18:33:20.821Z,7.97
2019-04-04T18:35:49.767Z,8.08
2019-04-04T18:38:18.505Z,9.40
2019-04-04T18:40:47.011Z,8.68
2019-04-04T18:43:15.461Z,7.40
2019-04-04T18:45:44.000Z,8.00
2019-04-04T18:48:12.518Z,7.35
2019-04-04T18:50:40.975Z,7.65
2019-04-04T18:53:09.542Z,7.65
2019-04-04T18:55:38.817Z,7.42
2019-04-04T18:58:07.324Z,7.30
2019-04-04T19:00:35.931Z,7.00
2019-04-04T19:03:04.896Z,6.72
2019-04-04T19:05:33.341Z,8.10
2019-04-04T19:08:01.873Z,7.53
2019-04-04T19:10:30.417Z,8.20
2019-04-04T19:13:05.258Z,7.92
2019-04-04T19:15:29.497Z,7.75
2019-04-04T19:17:58.031Z,7.47
2019-04-04T19:20:26.497Z,7.80
2019-04-04T19:22:55.089Z,7.62
2019-04-04T19:25:23.616Z,6.60
2019-04-04T19:27:52.143Z,8.55
2019-04-04T19:30:21.258Z,7.08
2019-04-04T19:32:49.800Z,7.10
2019-04-04T19:38:46.765Z,7.60
2019-04-04T19:41:15.345Z,7.62
2019-04-04T19:43:43.803Z,8.38
2019-04-04T19:46:12.259Z,7.37
2019-04-04T19:48:40.755Z,8.00
2019-04-04T19:51:09.389Z,9.30
2019-04-04T19:53:37.981Z,7.92
2019-04-04T19:56:06.444Z,8.43
2019-04-04T19:58:34.971Z,8.73
2019-04-04T20:01:04.359Z,8.13
2019-04-04T20:03:32.885Z,8.67
2019-04-04T20:06:01.351Z,8.70
2019-04-04T20:08:29.914Z,8.55
2019-04-04T20:10:58.371Z,8.65
2019-04-04T20:13:31.169Z,9.03
2019-04-04T20:15:57.119Z,8.68
2019-04-04T20:18:25.641Z,8.93
2019-04-04T20:20:54.113Z,8.58
2019-04-04T20:23:22.577Z,8.65
2019-04-04T20:25:51.072Z,9.68
2019-04-04T20:28:19.599Z,9.33
2019-04-04T20:30:48.105Z,9.05
2019-04-04T20:33:16.559Z,8.75
2019-04-04T20:35:45.096Z,9.45
2019-04-04T20:38:13.636Z,9.05
2019-04-04T20:40:42.165Z,9.10
2019-04-04T20:43:10.665Z,8.85
2019-04-04T20:45:39.119Z,9.35
2019-04-04T20:48:07.620Z,9.55
2019-04-04T20:50:36.156Z,10.38
2019-04-04T20:53:04.654Z,10.00
2019-04-04T20:55:33.118Z,8.95
2019-04-04T20:58:01.673Z,9.73
2019-04-04T21:00:30.139Z,9.63
2019-04-04T21:02:58.736Z,10.65
2019-04-04T21:05:27.272Z,10.13
2019-04-04T21:07:55.729Z,10.13
2019-04-04T21:10:24.231Z,10.18
2019-04-04T21:12:52.691Z,10.20
2019-04-04T21:15:21.191Z,10.18
2019-04-04T21:17:49.666Z,9.60
2019-04-04T21:20:18.246Z,11.08
2019-04-04T21:22:46.715Z,9.38
2019-04-04T21:25:15.236Z,9.58
2019-04-04T21:27:43.764Z,10.03
2019-04-04T21:30:12.487Z,9.80
2019-04-04T21:32:40.944Z,9.60
2019-04-04T21:35:09.901Z,9.65
2019-04-04T21:37:38.399Z,10.58
2019-04-04T21:40:06.995Z,10.32
2019-04-04T21:42:35.871Z,9.95
2019-04-04T21:45:06.369Z,8.53
2019-04-04T21:47:34.832Z,10.43
2019-04-04T21:50:03.565Z,10.28
2019-04-04T21:52:32.158Z,10.72
2019-04-04T21:55:00.619Z,11.22
2019-04-04T21:57:29.080Z,11.00
2019-04-04T21:59:57.569Z,11.40
2019-04-04T22:02:26.036Z,10.35
2019-04-04T22:04:54.557Z,10.65
2019-04-04T22:07:23.020Z,12.18
2019-04-04T22:09:51.556Z,10.43
2019-04-04T22:12:20.310Z,10.38
2019-04-04T22:14:48.804Z,11.10
2019-04-04T22:17:17.249Z,10.45
2019-04-04T22:19:45.716Z,10.95
2019-04-04T22:22:14.217Z,11.43
2019-04-04T22:24:42.723Z,12.20
2019-04-04T22:27:11.173Z,11.33
2019-04-04T22:29:59.008Z,11.85
2019-04-04T22:32:27.510Z,11.88
2019-04-04T22:34:55.962Z,11.83
2019-04-04T22:37:24.445Z,11.48
2019-04-04T22:39:52.951Z,11.63
2019-04-04T22:42:21.406Z,12.37
2019-04-04T22:44:49.938Z,11.45
2019-04-04T22:47:18.454Z,12.25
2019-04-04T22:49:46.915Z,12.10
2019-04-04T22:52:15.375Z,12.05
2019-04-04T22:54:43.895Z,11.25
2019-04-04T22:57:12.341Z,11.63
2019-04-04T22:59:40.804Z,12.82
2019-04-04T23:02:09.309Z,13.35
2019-04-04T23:04:37.811Z,12.75
2019-04-04T23:07:06.269Z,13.15
2019-04-04T23:09:34.732Z,12.90
2019-04-04T23:12:03.222Z,12.88
2019-04-04T23:14:31.685Z,12.58
2019-04-04T23:17:00.196Z,11.53
2019-04-04T23:19:28.656Z,12.20
2019-04-04T23:21:57.111Z,12.65
2019-04-04T23:24:25.608Z,12.03
2019-04-04T23:26:54.111Z,12.43
2019-04-04T23:29:22.561Z,13.18
2019-04-04T23:31:51.073Z,12.93
2019-04-04T23:34:19.535Z,13.62
2019-04-04T23:36:48.004Z,12.28
2019-04-04T23:39:16.687Z,13.20
2019-04-04T23:41:45.147Z,12.53
2019-04-04T23:44:13.601Z,12.73
2019-04-04T23:46:42.107Z,12.93
2019-04-04T23:49:10.633Z,13.13
2019-04-04T23:51:39.093Z,12.35
2019-04-04T23:54:07.554Z,12.98
2019-04-04T23:56:36.066Z,13.35
2019-04-04T23:59:05.165Z,13.00
